Time;durP1;ratioP1;P1;durP2;ratioP2;P2;SDS_P1;SDS_P2;PMS_P1;PMS_P2;Temp;Humidity;BMP_temperature;BMP_pressure;BME280_temperature;BME280_humidity;BME280_pressure;Samples;Min_cycle;Max_cycle;Signal;HPM_P1;HPM_P2
2023/08/02 00:00:36;;;;;;;5.68;4.85;;;18.90;99.90;;;;;;5045404;28;20723;-72
2023/08/02 00:03:25;;;;;;;7.43;4.90;;;18.90;99.90;;;;;;5056639;28;20227;-74
2023/08/02 00:06:15;;;;;;;6.00;4.60;;;19.00;99.90;;;;;;5057433;28;20290;-73
2023/08/02 00:09:04;;;;;;;5.93;4.72;;;18.90;99.90;;;;;;5065004;28;20227;-74
2023/08/02 00:11:53;;;;;;;7.00;4.20;;;18.90;99.90;;;;;;5052231;28;20235;-73
2023/08/02 00:14:42;;;;;;;5.60;4.35;;;18.90;99.90;;;;;;5059616;28;20254;-73
2023/08/02 00:17:32;;;;;;;7.03;4.65;;;18.90;99.90;;;;;;5056716;28;20227;-73
2023/08/02 00:20:23;;;;;;;6.10;4.50;;;18.90;99.90;;;;;;5045245;28;20374;-74
2023/08/02 00:23:12;;;;;;;4.78;4.07;;;18.90;99.90;;;;;;5054103;28;20209;-74
2023/08/02 00:26:00;;;;;;;5.65;4.82;;;18.90;99.90;;;;;;5057851;28;20217;-73
2023/08/02 00:28:49;;;;;;;6.85;4.30;;;18.80;99.90;;;;;;5058808;28;20235;-74
2023/08/02 00:31:39;;;;;;;5.40;4.85;;;18.90;99.90;;;;;;5060065;28;20702;-72
2023/08/02 00:34:30;;;;;;;6.30;4.70;;;18.80;99.90;;;;;;5062358;28;20258;-73
2023/08/02 00:37:19;;;;;;;4.72;4.22;;;18.80;99.90;;;;;;5034442;28;20256;-73
2023/08/02 00:40:09;;;;;;;6.82;4.80;;;18.80;99.90;;;;;;5055026;28;20215;-72
2023/08/02 00:42:58;;;;;;;5.15;4.63;;;18.80;99.90;;;;;;5044378;28;20219;-73
2023/08/02 00:45:47;;;;;;;8.00;4.90;;;18.80;99.90;;;;;;5045226;28;20763;-73
2023/08/02 00:48:36;;;;;;;6.18;4.63;;;18.80;99.90;;;;;;5068174;28;20225;-71
2023/08/02 00:51:30;;;;;;;8.55;4.55;;;18.80;99.90;;;;;;5054016;28;20695;-71
2023/08/02 00:54:19;;;;;;;7.47;4.60;;;18.80;99.90;;;;;;5059814;28;20315;-73
2023/08/02 00:57:10;;;;;;;5.03;4.35;;;18.80;99.90;;;;;;5044989;28;20233;-72
2023/08/02 00:59:59;;;;;;;5.90;4.50;;;18.80;99.90;;;;;;5069010;28;20237;-72
2023/08/02 01:02:47;;;;;;;7.53;4.50;;;18.70;99.90;;;;;;5043897;28;20224;-73
2023/08/02 01:05:41;;;;;;;7.85;4.57;;;18.70;99.90;;;;;;5058495;28;20927;-72
2023/08/02 01:08:36;;;;;;;7.93;4.68;;;18.70;99.90;;;;;;5067501;28;20277;-73
2023/08/02 01:11:30;;;;;;;8.10;4.82;;;18.70;99.90;;;;;;5071089;28;20301;-72
2023/08/02 01:14:21;;;;;;;7.05;4.68;;;18.70;99.90;;;;;;5064589;28;20234;-73
2023/08/02 01:17:13;;;;;;;5.72;4.35;;;18.70;99.90;;;;;;5059350;28;20219;-73
2023/08/02 01:20:04;;;;;;;6.50;4.50;;;18.70;99.90;;;;;;5066142;28;21059;-73
2023/08/02 01:22:53;;;;;;;7.93;4.90;;;18.70;99.90;;;;;;5065035;28;20305;-71
2023/08/02 01:25:45;;;;;;;5.57;4.45;;;18.70;99.90;;;;;;5078089;28;20220;-72
2023/08/02 01:28:38;;;;;;;12.32;5.25;;;18.70;99.90;;;;;;5068776;28;20227;-74
2023/08/02 01:31:28;;;;;;;5.32;4.45;;;18.70;99.90;;;;;;5063502;28;20235;-74
2023/08/02 01:34:18;;;;;;;6.72;4.72;;;18.60;99.90;;;;;;5061599;28;20343;-74
2023/08/02 01:37:08;;;;;;;5.57;4.53;;;18.60;99.90;;;;;;5072452;28;20216;-74
2023/08/02 01:39:57;;;;;;;6.35;4.68;;;18.60;99.90;;;;;;5076684;28;20219;-74
2023/08/02 01:42:46;;;;;;;6.78;4.68;;;18.60;99.90;;;;;;5081554;28;20272;-74
2023/08/02 01:45:35;;;;;;;6.13;4.38;;;18.60;99.90;;;;;;5061261;28;20220;-74
2023/08/02 01:48:25;;;;;;;6.25;4.80;;;18.60;99.90;;;;;;5081969;28;21199;-74
2023/08/02 01:51:14;;;;;;;7.20;4.75;;;18.60;99.90;;;;;;5063269;28;20223;-74
2023/08/02 01:54:04;;;;;;;7.13;4.88;;;18.60;99.90;;;;;;5065189;28;20594;-71
2023/08/02 01:56:53;;;;;;;7.63;4.82;;;18.60;99.90;;;;;;5065292;28;20357;-72
2023/08/02 01:59:42;;;;;;;5.55;4.32;;;18.70;99.90;;;;;;5055194;28;20228;-72
2023/08/02 02:02:31;;;;;;;5.45;4.70;;;18.70;99.90;;;;;;5057950;28;20318;-74
2023/08/02 02:05:21;;;;;;;6.20;5.03;;;18.60;99.90;;;;;;5048569;28;20232;-73
2023/08/02 02:08:09;;;;;;;5.72;4.22;;;18.60;99.90;;;;;;5051878;28;20288;-74
2023/08/02 02:10:59;;;;;;;7.15;4.50;;;18.60;99.90;;;;;;5055953;28;20277;-74
2023/08/02 02:13:49;;;;;;;5.97;4.45;;;18.60;99.90;;;;;;5062493;28;20314;-73
2023/08/02 02:16:38;;;;;;;6.47;4.63;;;18.50;99.90;;;;;;5045756;28;20225;-74
2023/08/02 02:19:30;;;;;;;6.20;4.55;;;18.50;99.90;;;;;;5054230;28;20228;-72
2023/08/02 02:22:19;;;;;;;7.10;4.75;;;18.40;99.90;;;;;;5044067;28;20593;-73
2023/08/02 02:25:09;;;;;;;5.57;4.70;;;18.50;99.90;;;;;;5054832;28;20217;-74
2023/08/02 02:27:59;;;;;;;7.80;4.78;;;18.50;99.90;;;;;;5031057;28;20733;-74
2023/08/02 02:30:49;;;;;;;8.52;4.50;;;18.50;99.90;;;;;;5060671;28;20242;-73
2023/08/02 02:33:41;;;;;;;5.28;4.55;;;18.50;99.90;;;;;;5051020;28;20299;-73
2023/08/02 02:36:30;;;;;;;7.72;4.22;;;18.50;99.90;;;;;;5040888;28;20231;-74
2023/08/02 02:39:19;;;;;;;5.15;4.00;;;18.40;99.90;;;;;;5053070;28;20220;-73
2023/08/02 02:42:08;;;;;;;7.07;4.70;;;18.40;99.90;;;;;;5065515;28;20216;-73
2023/08/02 02:44:58;;;;;;;6.60;4.32;;;18.40;99.90;;;;;;5055682;28;20220;-73
2023/08/02 02:47:47;;;;;;;9.98;5.18;;;18.40;99.90;;;;;;5046620;28;20224;-74
2023/08/02 02:50:36;;;;;;;6.07;4.63;;;18.30;99.90;;;;;;5043249;28;20228;-74
2023/08/02 02:53:25;;;;;;;7.63;4.60;;;18.30;99.90;;;;;;5048326;28;20608;-74
2023/08/02 02:56:14;;;;;;;5.65;4.28;;;18.40;99.90;;;;;;5050504;28;20230;-75
2023/08/02 02:59:02;;;;;;;6.85;4.43;;;18.30;99.90;;;;;;5046714;28;20244;-73
2023/08/02 03:01:53;;;;;;;5.45;4.00;;;18.20;99.90;;;;;;5060957;28;20696;-74
2023/08/02 03:04:42;;;;;;;8.75;4.82;;;18.30;99.90;;;;;;5062022;28;20236;-73
2023/08/02 03:07:31;;;;;;;6.15;4.53;;;18.20;99.90;;;;;;5071179;28;20735;-74
2023/08/02 03:10:20;;;;;;;8.10;4.65;;;18.20;99.90;;;;;;5062524;28;20815;-74
2023/08/02 03:13:09;;;;;;;9.25;4.50;;;18.10;99.90;;;;;;5077949;28;20234;-72
2023/08/02 03:15:58;;;;;;;8.20;4.90;;;18.10;99.90;;;;;;5059656;28;20242;-72
2023/08/02 03:18:49;;;;;;;6.10;4.60;;;18.10;99.90;;;;;;5061925;28;20230;-72
2023/08/02 03:21:38;;;;;;;8.75;4.00;;;18.10;99.90;;;;;;5059076;28;20703;-72
2023/08/02 03:24:27;;;;;;;6.43;4.78;;;18.10;99.90;;;;;;5065327;28;20289;-73
2023/08/02 03:27:16;;;;;;;6.50;4.50;;;18.00;99.90;;;;;;5071823;28;20598;-72
2023/08/02 03:30:07;;;;;;;7.75;4.55;;;17.90;99.90;;;;;;5071394;28;20238;-73
2023/08/02 03:32:55;;;;;;;7.20;4.78;;;17.90;99.90;;;;;;5057091;28;20231;-72
2023/08/02 03:35:46;;;;;;;6.55;4.55;;;17.90;99.90;;;;;;5072957;28;20315;-73
2023/08/02 03:38:34;;;;;;;6.22;4.30;;;17.90;99.90;;;;;;5082190;28;20240;-73
2023/08/02 03:41:23;;;;;;;8.48;4.80;;;17.90;99.90;;;;;;5066994;28;20262;-73
2023/08/02 03:44:12;;;;;;;5.85;4.43;;;17.90;99.90;;;;;;5065477;28;20220;-72
2023/08/02 03:47:01;;;;;;;5.95;4.60;;;18.10;99.90;;;;;;5076798;28;20720;-71
2023/08/02 03:49:50;;;;;;;8.13;4.53;;;18.00;99.90;;;;;;5079334;28;20231;-72
2023/08/02 03:52:40;;;;;;;8.65;4.78;;;18.10;99.90;;;;;;5054360;28;20872;-71
2023/08/02 03:55:29;;;;;;;8.93;4.65;;;18.20;99.90;;;;;;5075343;28;20220;-72
2023/08/02 03:58:18;;;;;;;5.50;4.40;;;18.10;99.90;;;;;;5074727;28;20284;-73
2023/08/02 04:01:07;;;;;;;6.78;4.32;;;18.10;99.90;;;;;;5084790;28;20292;-74
2023/08/02 04:03:56;;;;;;;7.78;4.88;;;18.10;99.90;;;;;;5066012;28;20269;-74
2023/08/02 04:06:44;;;;;;;5.18;4.68;;;18.20;99.90;;;;;;5057242;28;20703;-72
2023/08/02 04:09:35;;;;;;;6.72;5.50;;;18.30;99.90;;;;;;5046379;28;20224;-72
2023/08/02 04:12:24;;;;;;;6.32;4.68;;;18.40;99.90;;;;;;5056421;28;20382;-72
2023/08/02 04:15:13;;;;;;;4.88;4.30;;;18.40;99.90;;;;;;5051296;28;20224;-71
2023/08/02 04:18:02;;;;;;;7.05;4.57;;;18.60;99.90;;;;;;5046156;28;20220;-73
2023/08/02 04:20:51;;;;;;;5.47;4.22;;;18.60;99.90;;;;;;5053044;28;20221;-72
2023/08/02 04:23:40;;;;;;;6.25;4.57;;;18.70;99.90;;;;;;5055334;28;20324;-73
2023/08/02 04:26:30;;;;;;;5.55;4.45;;;18.70;99.90;;;;;;5048091;28;20239;-72
2023/08/02 04:29:20;;;;;;;7.78;5.07;;;18.70;99.90;;;;;;5051845;28;20328;-73
2023/08/02 04:32:08;;;;;;;6.50;4.43;;;18.80;99.90;;;;;;5059158;28;20258;-72
2023/08/02 04:34:57;;;;;;;6.88;4.15;;;18.80;99.90;;;;;;5056812;28;20216;-73
2023/08/02 04:37:46;;;;;;;6.00;3.95;;;18.80;99.90;;;;;;5051738;28;20311;-71
2023/08/02 04:40:38;;;;;;;6.90;4.38;;;18.80;99.90;;;;;;5048262;28;20224;-72
2023/08/02 04:43:29;;;;;;;8.40;4.35;;;18.90;99.90;;;;;;5043730;28;20604;-71
2023/08/02 04:46:18;;;;;;;5.85;4.10;;;19.00;99.90;;;;;;5059241;28;20716;-71
2023/08/02 04:49:07;;;;;;;5.88;4.40;;;19.00;99.90;;;;;;5051553;28;20303;-71
2023/08/02 04:51:56;;;;;;;5.95;4.03;;;19.10;99.90;;;;;;5044621;28;20225;-71
2023/08/02 04:54:45;;;;;;;6.47;4.35;;;19.30;99.90;;;;;;5049791;28;20231;-71
2023/08/02 04:57:34;;;;;;;6.63;4.40;;;19.30;99.90;;;;;;5043439;28;20231;-71
2023/08/02 05:00:29;;;;;;;6.85;4.20;;;19.30;99.90;;;;;;5057666;28;20233;-72
2023/08/02 05:03:18;;;;;;;5.85;4.13;;;19.50;99.90;;;;;;5059731;28;20216;-72
2023/08/02 05:06:07;;;;;;;5.97;4.10;;;19.40;99.90;;;;;;5074104;28;20217;-72
2023/08/02 05:08:56;;;;;;;4.53;4.10;;;19.50;99.90;;;;;;5066788;28;20220;-71
2023/08/02 05:11:45;;;;;;;6.50;4.50;;;19.70;99.90;;;;;;5070734;28;20353;-71
2023/08/02 05:14:34;;;;;;;5.85;4.32;;;19.70;99.90;;;;;;5086947;28;20687;-72
2023/08/02 05:17:24;;;;;;;6.28;4.50;;;19.80;99.90;;;;;;5061515;28;20227;-72
2023/08/02 05:20:13;;;;;;;5.00;3.95;;;19.90;99.90;;;;;;5064475;28;20358;-72
2023/08/02 05:23:02;;;;;;;4.90;3.88;;;19.90;99.90;;;;;;5074200;28;20219;-72
2023/08/02 05:25:54;;;;;;;7.03;3.92;;;19.90;99.90;;;;;;5069409;28;20824;-73
2023/08/02 05:28:43;;;;;;;7.22;4.13;;;20.10;99.90;;;;;;5075327;28;20227;-73
2023/08/02 05:31:32;;;;;;;7.18;3.95;;;20.20;99.90;;;;;;5077127;28;20369;-73
2023/08/02 05:34:22;;;;;;;6.60;4.05;;;20.30;99.90;;;;;;5066085;28;20242;-72
2023/08/02 05:37:12;;;;;;;6.90;4.13;;;20.30;99.90;;;;;;5082691;28;20273;-73
2023/08/02 05:40:01;;;;;;;5.70;4.18;;;20.40;99.90;;;;;;5081191;28;20219;-72
2023/08/02 05:42:50;;;;;;;6.20;4.30;;;20.40;99.90;;;;;;5064816;28;20224;-73
2023/08/02 05:45:40;;;;;;;6.25;4.40;;;20.60;99.90;;;;;;5082693;28;20643;-72
2023/08/02 05:48:28;;;;;;;6.22;4.03;;;20.70;99.90;;;;;;5078831;28;20689;-74
2023/08/02 05:51:19;;;;;;;6.00;4.15;;;20.70;99.90;;;;;;5066629;28;20363;-73
2023/08/02 05:54:07;;;;;;;6.47;4.13;;;20.70;99.90;;;;;;5078165;28;20247;-74
2023/08/02 05:56:56;;;;;;;7.60;4.22;;;20.70;99.90;;;;;;5080856;28;20220;-73
2023/08/02 05:59:45;;;;;;;5.32;4.13;;;20.80;99.90;;;;;;5063772;28;20761;-72
2023/08/02 06:02:34;;;;;;;6.88;4.45;;;22.00;99.90;;;;;;5085864;28;20230;-71
2023/08/02 06:05:23;;;;;;;5.80;3.67;;;23.70;99.90;;;;;;5063113;28;20546;-71
2023/08/02 06:08:13;;;;;;;6.65;4.05;;;23.90;99.90;;;;;;5059280;28;20766;-71
2023/08/02 06:11:02;;;;;;;4.30;3.60;;;23.20;99.90;;;;;;5063738;28;20330;-73
2023/08/02 06:13:51;;;;;;;6.00;3.90;;;22.50;99.90;;;;;;5039755;28;20635;-70
2023/08/02 06:16:40;;;;;;;5.97;4.45;;;22.10;99.90;;;;;;5039312;28;20220;-73
2023/08/02 06:19:30;;;;;;;8.23;4.10;;;21.90;99.90;;;;;;5038124;28;20228;-74
2023/08/02 06:22:19;;;;;;;5.90;4.20;;;21.60;99.90;;;;;;5038921;28;20241;-74
2023/08/02 06:25:10;;;;;;;7.10;3.90;;;21.40;99.90;;;;;;5041629;28;20953;-73
2023/08/02 06:27:59;;;;;;;4.72;4.00;;;21.40;99.90;;;;;;5055933;28;20695;-73
2023/08/02 06:30:48;;;;;;;11.43;4.30;;;21.30;99.90;;;;;;5042504;28;20262;-74
2023/08/02 06:33:36;;;;;;;5.47;3.65;;;21.20;99.90;;;;;;5055111;28;20704;-73
2023/08/02 06:36:28;;;;;;;4.63;3.55;;;21.30;99.90;;;;;;5045300;28;20560;-74
2023/08/02 06:39:17;;;;;;;5.35;3.38;;;21.60;99.90;;;;;;5066471;28;20235;-72
2023/08/02 06:42:08;;;;;;;5.45;3.30;;;22.80;99.90;;;;;;5056783;28;20212;-72
2023/08/02 06:44:57;;;;;;;8.63;3.70;;;23.60;99.90;;;;;;5060050;28;20231;-73
2023/08/02 06:47:46;;;;;;;6.63;4.35;;;23.00;99.90;;;;;;5049021;28;20725;-74
2023/08/02 06:50:37;;;;;;;5.25;3.80;;;22.60;99.90;;;;;;5059031;28;20220;-72
2023/08/02 06:53:27;;;;;;;6.10;3.83;;;22.10;99.90;;;;;;5040103;28;20228;-72
2023/08/02 06:56:17;;;;;;;6.68;4.45;;;22.10;99.90;;;;;;5060945;28;20232;-73
2023/08/02 06:59:08;;;;;;;8.93;3.70;;;21.70;99.90;;;;;;5055781;28;20236;-72
2023/08/02 07:01:57;;;;;;;7.90;3.92;;;21.70;99.90;;;;;;5056117;28;20703;-72
2023/08/02 07:04:46;;;;;;;7.75;3.50;;;21.90;99.90;;;;;;5051020;28;20243;-71
2023/08/02 07:07:35;;;;;;;4.28;3.22;;;21.80;99.90;;;;;;5069938;28;20236;-71
2023/08/02 07:10:24;;;;;;;4.13;3.42;;;21.80;99.90;;;;;;5063394;28;20223;-72
2023/08/02 07:13:13;;;;;;;6.47;3.70;;;21.80;99.90;;;;;;5073238;28;20211;-72
2023/08/02 07:16:07;;;;;;;7.60;3.80;;;21.80;99.90;;;;;;5074553;28;20228;-73
2023/08/02 07:18:55;;;;;;;6.32;3.80;;;21.50;99.90;;;;;;5069632;28;20240;-72
2023/08/02 07:21:44;;;;;;;4.32;3.63;;;21.40;99.90;;;;;;5054215;28;20822;-71
2023/08/02 07:24:34;;;;;;;6.50;3.53;;;21.50;99.90;;;;;;5071142;28;20604;-71
2023/08/02 07:27:23;;;;;;;5.60;3.67;;;21.80;99.90;;;;;;5062413;28;20437;-71
2023/08/02 07:30:12;;;;;;;5.90;3.78;;;22.10;99.90;;;;;;5077053;28;20549;-72
2023/08/02 07:33:02;;;;;;;6.57;4.03;;;21.90;99.90;;;;;;5074059;28;20306;-72
2023/08/02 07:35:51;;;;;;;20.50;5.55;;;22.00;99.90;;;;;;5069567;28;20568;-72
2023/08/02 07:38:40;;;;;;;10.77;4.07;;;22.90;99.90;;;;;;5074356;28;20242;-72
2023/08/02 07:41:29;;;;;;;5.65;3.38;;;23.60;99.90;;;;;;5069035;28;20231;-71
2023/08/02 07:44:18;;;;;;;4.15;3.42;;;24.10;99.90;;;;;;5071900;28;20702;-71
2023/08/02 07:47:07;;;;;;;7.60;3.72;;;24.00;99.90;;;;;;5070383;28;20231;-71
2023/08/02 07:49:57;;;;;;;4.45;3.45;;;23.90;99.90;;;;;;5058367;28;20304;-72
2023/08/02 07:52:46;;;;;;;5.53;3.33;;;24.50;99.90;;;;;;5062214;28;20219;-72
2023/08/02 07:55:35;;;;;;;9.00;3.50;;;24.90;99.90;;;;;;5078221;28;20220;-78
2023/08/02 07:58:23;;;;;;;4.05;3.03;;;25.40;99.90;;;;;;5075561;28;21042;-74
2023/08/02 08:01:12;;;;;;;4.82;3.58;;;25.60;99.90;;;;;;5067942;28;20224;-75
2023/08/02 08:04:01;;;;;;;5.40;3.53;;;25.80;99.90;;;;;;5070894;28;20222;-73
2023/08/02 08:06:52;;;;;;;7.20;3.90;;;25.80;99.90;;;;;;5039050;28;20227;-74
2023/08/02 08:09:41;;;;;;;3.80;3.40;;;26.20;99.90;;;;;;5038042;28;20310;-75
2023/08/02 08:12:29;;;;;;;4.00;3.60;;;26.00;99.90;;;;;;5041705;28;20216;-74
2023/08/02 08:15:18;;;;;;;10.77;4.07;;;25.10;99.90;;;;;;5046942;28;20813;-76
2023/08/02 08:18:07;;;;;;;13.30;4.35;;;25.00;99.90;;;;;;5048041;28;20225;-76
2023/08/02 08:20:56;;;;;;;9.32;3.70;;;25.00;99.90;;;;;;5053551;28;20231;-77
2023/08/02 08:23:47;;;;;;;29.38;5.25;;;24.80;99.90;;;;;;5048960;28;20224;-73
2023/08/02 08:26:35;;;;;;;27.65;4.90;;;24.20;99.90;;;;;;5049861;28;21002;-70
2023/08/02 08:29:24;;;;;;;6.68;3.30;;;25.50;99.90;;;;;;5054104;28;20303;-72
2023/08/02 08:32:13;;;;;;;3.65;3.00;;;25.40;99.90;;;;;;5050993;28;20265;-73
2023/08/02 08:35:03;;;;;;;6.43;2.70;;;25.50;99.90;;;;;;5053800;28;20224;-71
2023/08/02 08:37:53;;;;;;;3.83;3.03;;;26.50;99.90;;;;;;5049764;28;20285;-72
2023/08/02 08:40:49;;;;;;;9.68;3.53;;;27.20;99.90;;;;;;5037968;28;20232;-71
2023/08/02 08:43:38;;;;;;;3.83;2.70;;;27.30;99.90;;;;;;5053233;28;20228;-75
2023/08/02 08:46:31;;;;;;;5.55;3.10;;;27.00;99.90;;;;;;5034138;28;20327;-70
2023/08/02 08:49:20;;;;;;;29.65;4.90;;;26.60;99.90;;;;;;5058835;28;20259;-71
2023/08/02 08:52:12;;;;;;;6.28;3.50;;;26.50;99.90;;;;;;5047295;28;20243;-70
2023/08/02 08:55:01;;;;;;;4.20;2.83;;;27.20;99.90;;;;;;5053993;28;20213;-71
2023/08/02 08:57:51;;;;;;;3.65;3.10;;;25.90;99.90;;;;;;5047999;28;20719;-70
2023/08/02 09:00:41;;;;;;;3.42;2.80;;;25.90;99.90;;;;;;5039330;28;20781;-70
2023/08/02 09:03:30;;;;;;;3.83;2.70;;;26.00;99.90;;;;;;5045470;28;20223;-70
2023/08/02 09:06:21;;;;;;;2.97;2.53;;;25.10;99.90;;;;;;5052669;28;20217;-71
2023/08/02 09:09:14;;;;;;;4.15;2.30;;;25.90;99.90;;;;;;5049417;28;20545;-71
2023/08/02 09:12:04;;;;;;;4.00;2.60;;;26.30;99.90;;;;;;5059372;28;20595;-71
2023/08/02 09:15:02;;;;;;;3.78;2.55;;;25.20;99.90;;;;;;5057547;28;20271;-70
2023/08/02 09:17:52;;;;;;;5.00;2.83;;;25.30;99.90;;;;;;5059493;28;20247;-71
2023/08/02 09:20:54;;;;;;;2.45;2.15;;;25.50;99.90;;;;;;5054354;28;20216;-70
2023/08/02 09:23:47;;;;;;;4.10;2.50;;;26.90;99.90;;;;;;5057681;28;20227;-70
2023/08/02 09:26:36;;;;;;;4.25;2.40;;;27.30;99.90;;;;;;5055538;28;20268;-71
2023/08/02 09:29:26;;;;;;;4.32;2.38;;;28.10;99.90;;;;;;5056682;28;20212;-72
2023/08/02 09:32:16;;;;;;;4.25;2.30;;;29.20;99.90;;;;;;5059000;28;20235;-71
2023/08/02 09:35:06;;;;;;;3.88;2.30;;;29.50;99.90;;;;;;5044588;28;20231;-71
2023/08/02 09:37:55;;;;;;;46.15;4.78;;;29.20;99.90;;;;;;5057543;28;20285;-70
2023/08/02 09:40:47;;;;;;;11.90;2.88;;;28.40;99.90;;;;;;5037542;28;20216;-70
2023/08/02 09:43:56;;;;;;;11.98;2.60;;;28.00;99.90;;;;;;5058166;28;20646;-69
2023/08/02 09:46:45;;;;;;;3.83;2.22;;;29.00;99.90;;;;;;5058611;28;20223;-70
2023/08/02 09:49:36;;;;;;;2.30;1.90;;;30.50;99.90;;;;;;5053949;28;20221;-71
2023/08/02 09:52:27;;;;;;;17.48;2.90;;;30.80;99.90;;;;;;5040166;28;20228;-73
2023/08/02 09:55:16;;;;;;;34.65;4.30;;;28.90;99.90;;;;;;5043424;28;20224;-73
2023/08/02 09:58:05;;;;;;;4.70;2.20;;;28.10;99.90;;;;;;5059900;28;20790;-71
2023/08/02 10:00:55;;;;;;;5.25;2.00;;;30.30;99.90;;;;;;5037981;28;20651;-73
2023/08/02 10:03:44;;;;;;;5.05;2.33;;;29.90;99.90;;;;;;5058203;28;20216;-72
2023/08/02 10:06:43;;;;;;;9.35;2.45;;;28.10;99.80;;;;;;5045412;28;20687;-72
2023/08/02 10:09:35;;;;;;;3.70;1.90;;;27.40;99.90;;;;;;5046925;28;20250;-72
2023/08/02 10:12:25;;;;;;;2.55;1.75;;;30.60;98.10;;;;;;5043687;28;20258;-73
2023/08/02 10:15:14;;;;;;;4.15;1.80;;;31.50;97.20;;;;;;5050162;28;21181;-71
2023/08/02 10:18:03;;;;;;;4.00;1.92;;;30.40;97.60;;;;;;5054786;28;20216;-72
2023/08/02 10:20:54;;;;;;;6.00;1.60;;;33.20;96.90;;;;;;5034564;28;20731;-72
2023/08/02 10:23:45;;;;;;;2.78;1.85;;;32.00;92.90;;;;;;5040952;28;20275;-70
2023/08/02 10:26:34;;;;;;;7.72;1.75;;;30.70;92.40;;;;;;5053129;28;20402;-71
2023/08/02 10:29:26;;;;;;;7.63;2.63;;;28.90;94.20;;;;;;5047023;28;20232;-70
2023/08/02 10:32:17;;;;;;;3.38;1.60;;;27.80;97.50;;;;;;5049427;28;20739;-70
2023/08/02 10:35:06;;;;;;;2.45;1.52;;;28.30;99.80;;;;;;5054716;28;20265;-71
2023/08/02 10:37:56;;;;;;;13.60;1.95;;;32.80;96.50;;;;;;5041117;28;20212;-71
2023/08/02 10:41:05;;;;;;;2.08;1.50;;;35.20;88.90;;;;;;5039191;28;20219;-72
2023/08/02 10:44:14;;;;;;;3.15;1.27;;;35.80;85.90;;;;;;5060208;28;20223;-71
2023/08/02 10:47:27;;;;;;;2.33;1.52;;;34.90;83.10;;;;;;5054287;28;20215;-71
2023/08/02 10:50:46;;;;;;;2.33;1.60;;;31.90;90.60;;;;;;5052970;28;20242;-72
2023/08/02 10:53:35;;;;;;;7.32;1.77;;;32.70;83.90;;;;;;5057896;28;20248;-71
2023/08/02 10:56:26;;;;;;;7.35;1.60;;;30.60;92.40;;;;;;5056225;28;20238;-71
2023/08/02 10:59:15;;;;;;;4.90;1.77;;;29.20;91.00;;;;;;5052540;28;20239;-71
2023/08/02 11:02:07;;;;;;;1.65;1.42;;;34.00;91.70;;;;;;5056026;28;20228;-71
2023/08/02 11:04:56;;;;;;;3.95;1.58;;;37.20;79.20;;;;;;5068338;28;20363;-67
2023/08/02 11:07:58;;;;;;;1.90;1.55;;;38.50;72.00;;;;;;5071659;28;20215;-70
2023/08/02 11:10:48;;;;;;;5.53;1.50;;;38.60;73.30;;;;;;5080473;28;21114;-71
2023/08/02 11:13:42;;;;;;;4.97;1.85;;;38.60;70.20;;;;;;5074603;28;20306;-71
2023/08/02 11:16:38;;;;;;;6.22;1.40;;;39.40;66.90;;;;;;5062239;28;20223;-72
2023/08/02 11:19:29;;;;;;;12.35;1.95;;;39.90;63.50;;;;;;5063063;28;20222;-73
2023/08/02 11:22:20;;;;;;;27.75;3.35;;;40.00;64.10;;;;;;5072447;28;20251;-72
2023/08/02 11:25:09;;;;;;;7.47;1.70;;;39.30;61.90;;;;;;5057194;28;20235;-71
2023/08/02 11:28:03;;;;;;;21.30;3.20;;;37.90;65.40;;;;;;5058403;28;20227;-72
2023/08/02 11:30:53;;;;;;;2.00;1.55;;;39.20;64.50;;;;;;5059043;28;20234;-74
2023/08/02 11:33:45;;;;;;;2.42;1.40;;;41.20;58.50;;;;;;5079105;28;20222;-70
2023/08/02 11:36:34;;;;;;;5.18;1.70;;;39.20;57.60;;;;;;5068705;28;20246;-72
2023/08/02 11:39:23;;;;;;;12.73;2.00;;;34.80;62.60;;;;;;5068190;28;20260;-73
2023/08/02 11:42:12;;;;;;;6.47;1.70;;;32.90;71.00;;;;;;5079304;28;20221;-72
2023/08/02 11:45:01;;;;;;;7.63;1.90;;;31.50;74.20;;;;;;5078820;28;20317;-73
2023/08/02 11:48:25;;;;;;;2.17;1.45;;;30.60;79.50;;;;;;5079219;28;20408;-76
2023/08/02 11:51:15;;;;;;;2.28;1.50;;;35.90;78.10;;;;;;5077947;28;20221;-72
2023/08/02 11:54:05;;;;;;;1.85;1.38;;;38.30;65.80;;;;;;5065588;28;20222;-69
2023/08/02 11:56:53;;;;;;;3.30;1.55;;;37.90;63.80;;;;;;5080648;28;20581;-72
2023/08/02 11:59:44;;;;;;;3.13;1.77;;;37.70;60.40;;;;;;5067976;28;20219;-72
2023/08/02 12:02:34;;;;;;;3.28;1.60;;;37.00;62.30;;;;;;5074760;28;20239;-71
2023/08/02 12:05:25;;;;;;;2.42;1.58;;;42.70;63.10;;;;;;5078468;28;20694;-72
2023/08/02 12:08:17;;;;;;;4.20;1.63;;;43.40;55.60;;;;;;5080300;28;20632;-71
2023/08/02 12:11:14;;;;;;;4.35;1.80;;;45.80;53.30;;;;;;5071643;28;20652;-72
2023/08/02 12:14:02;;;;;;;1.40;1.30;;;45.00;52.60;;;;;;5056099;28;20216;-71
2023/08/02 12:16:51;;;;;;;3.40;1.42;;;41.70;50.80;;;;;;5076465;28;20287;-72
2023/08/02 12:19:41;;;;;;;4.97;1.80;;;36.40;56.00;;;;;;5064084;28;20222;-73
2023/08/02 12:22:50;;;;;;;3.90;2.08;;;33.50;62.30;;;;;;5075438;28;20354;-72
2023/08/02 12:25:44;;;;;;;13.25;2.00;;;35.30;60.20;;;;;;5074682;28;20590;-72
2023/08/02 12:28:45;;;;;;;3.03;1.50;;;35.50;63.00;;;;;;5070802;28;20485;-71
2023/08/02 12:31:44;;;;;;;4.47;1.88;;;35.20;58.50;;;;;;5077661;28;20244;-71
2023/08/02 12:34:36;;;;;;;5.85;2.22;;;32.70;64.00;;;;;;5073750;28;20409;-71
2023/08/02 12:37:25;;;;;;;2.03;1.52;;;30.90;65.80;;;;;;5074305;28;20227;-71
2023/08/02 12:40:15;;;;;;;2.58;1.50;;;;;;;;;;5062728;28;20223;-70
2023/08/02 12:43:04;;;;;;;5.55;1.92;;;29.20;73.00;;;;;;5076346;28;20226;-70
2023/08/02 12:45:54;;;;;;;4.30;1.83;;;28.80;74.90;;;;;;5074128;28;20991;-72
2023/08/02 12:48:43;;;;;;;5.28;1.65;;;28.90;74.40;;;;;;5079581;28;20234;-71
2023/08/02 12:51:32;;;;;;;2.70;1.30;;;28.50;75.30;;;;;;5072214;28;20231;-71
2023/08/02 12:54:21;;;;;;;3.83;1.77;;;28.10;77.00;;;;;;5082376;28;20769;-72
2023/08/02 12:57:11;;;;;;;2.95;1.75;;;27.90;78.40;;;;;;5070434;28;20223;-71
2023/08/02 13:00:00;;;;;;;6.35;1.98;;;27.40;78.10;;;;;;5089872;28;20237;-71
2023/08/02 13:02:49;;;;;;;2.85;1.80;;;27.60;82.00;;;;;;5053282;28;20250;-72
2023/08/02 13:05:38;;;;;;;3.95;1.80;;;27.60;79.00;;;;;;5080152;28;20246;-69
2023/08/02 13:08:28;;;;;;;4.03;1.90;;;27.50;80.00;;;;;;5075340;28;20226;-70
2023/08/02 13:11:20;;;;;;;4.57;2.03;;;27.50;80.50;;;;;;5086988;28;21138;-71
2023/08/02 13:14:10;;;;;;;2.33;1.90;;;27.50;83.10;;;;;;5079688;28;20230;-71
2023/08/02 13:16:59;;;;;;;3.42;1.95;;;27.40;81.50;;;;;;5080879;28;20317;-71
2023/08/02 13:19:47;;;;;;;6.63;1.90;;;27.30;81.60;;;;;;5073192;28;20340;-71
2023/08/02 13:22:36;;;;;;;4.78;1.95;;;27.20;81.60;;;;;;5066244;28;20223;-71
2023/08/02 13:25:25;;;;;;;3.55;1.80;;;27.00;83.70;;;;;;5070238;28;20299;-72
2023/08/02 13:28:15;;;;;;;3.95;2.20;;;27.20;84.20;;;;;;5077550;28;20306;-70
2023/08/02 13:31:06;;;;;;;2.45;2.03;;;27.20;83.50;;;;;;5074321;28;20227;-71
2023/08/02 13:33:55;;;;;;;3.22;2.15;;;27.10;83.60;;;;;;5075228;28;20245;-71
2023/08/02 13:36:46;;;;;;;2.65;2.30;;;27.00;84.70;;;;;;5069717;28;20227;-72
2023/08/02 13:39:35;;;;;;;9.18;2.33;;;26.80;85.10;;;;;;5082654;28;20211;-71
2023/08/02 13:42:24;;;;;;;13.75;2.97;;;26.70;85.80;;;;;;5074442;28;20819;-71
2023/08/02 13:45:13;;;;;;;2.80;2.08;;;26.60;88.50;;;;;;5071172;28;20212;-72
2023/08/02 13:48:04;;;;;;;3.40;2.03;;;26.70;85.90;;;;;;5059756;28;20338;-71
2023/08/02 13:50:53;;;;;;;6.13;2.17;;;26.60;86.50;;;;;;5073931;28;20308;-71
2023/08/02 13:53:42;;;;;;;3.90;2.33;;;26.50;86.80;;;;;;5073531;28;20304;-70
2023/08/02 13:56:31;;;;;;;5.13;2.50;;;26.40;88.60;;;;;;5071620;28;20251;-71
2023/08/02 13:59:20;;;;;;;3.33;2.30;;;26.30;88.60;;;;;;5056847;28;20223;-70
2023/08/02 14:02:09;;;;;;;3.92;2.38;;;26.20;89.70;;;;;;5077521;28;20230;-73
2023/08/02 14:04:59;;;;;;;4.40;2.13;;;25.90;90.00;;;;;;5086869;28;20365;-72
2023/08/02 14:07:48;;;;;;;3.22;2.28;;;25.80;90.20;;;;;;5067313;28;20222;-72
2023/08/02 14:10:39;;;;;;;4.38;2.40;;;25.90;90.60;;;;;;5060577;28;20829;-71
2023/08/02 14:13:28;;;;;;;4.97;2.45;;;25.90;90.60;;;;;;5070443;28;20211;-72
2023/08/02 14:16:17;;;;;;;3.05;2.00;;;26.10;90.30;;;;;;5071936;28;20305;-72
2023/08/02 14:19:06;;;;;;;2.78;2.25;;;26.10;90.40;;;;;;5074909;28;20223;-72
2023/08/02 14:21:56;;;;;;;4.25;2.60;;;26.20;90.80;;;;;;5051561;28;20246;-72
2023/08/02 14:24:45;;;;;;;3.80;2.70;;;26.40;90.60;;;;;;5074435;28;20234;-71
2023/08/02 14:27:34;;;;;;;4.10;2.20;;;26.50;90.50;;;;;;5076137;28;20234;-72
2023/08/02 14:30:22;;;;;;;5.47;2.42;;;26.50;90.90;;;;;;5059713;28;20224;-71
2023/08/02 14:33:11;;;;;;;19.42;3.38;;;26.30;91.10;;;;;;5062904;28;20215;-72
2023/08/02 14:36:00;;;;;;;3.30;2.30;;;26.30;91.40;;;;;;5068426;28;20227;-72
2023/08/02 14:38:50;;;;;;;4.90;1.90;;;26.10;91.90;;;;;;5070165;28;20671;-72
2023/08/02 14:41:40;;;;;;;2.85;2.15;;;25.90;91.30;;;;;;5060983;28;20726;-72
2023/08/02 14:44:28;;;;;;;4.80;2.22;;;25.80;91.80;;;;;;5064340;28;20282;-72